sensor_id;sensor_type;location;lat;lon;timestamp;temperature;humidity
15364;DHT22;7781;49.690;6.472;2023-04-24T00:01:55;9.70;99.90
15364;DHT22;7781;49.690;6.472;2023-04-24T00:04:24;9.70;99.90
15364;DHT22;7781;49.690;6.472;2023-04-24T00:06:55;9.70;99.90
15364;DHT22;7781;49.690;6.472;2023-04-24T00:09:24;9.70;99.90
15364;DHT22;7781;49.690;6.472;2023-04-24T00:11:55;9.70;99.90
15364;DHT22;7781;49.690;6.472;2023-04-24T00:14:25;9.70;99.90
15364;DHT22;7781;49.690;6.472;2023-04-24T00:16:57;9.70;99.90
15364;DHT22;7781;49.690;6.472;2023-04-24T00:19:30;9.70;99.90
15364;DHT22;7781;49.690;6.472;2023-04-24T00:21:59;9.70;99.90
15364;DHT22;7781;49.690;6.472;2023-04-24T00:24:28;9.70;99.90
15364;DHT22;7781;49.690;6.472;2023-04-24T00:26:57;9.70;99.90
15364;DHT22;7781;49.690;6.472;2023-04-24T00:29:30;9.70;99.90
15364;DHT22;7781;49.690;6.472;2023-04-24T00:31:59;9.60;99.90
15364;DHT22;7781;49.690;6.472;2023-04-24T00:34:28;9.60;99.90
15364;DHT22;7781;49.690;6.472;2023-04-24T00:36:57;9.60;99.90
15364;DHT22;7781;49.690;6.472;2023-04-24T00:39:26;9.60;99.90
15364;DHT22;7781;49.690;6.472;2023-04-24T00:41:55;9.60;99.90
15364;DHT22;7781;49.690;6.472;2023-04-24T00:44:25;9.60;99.90
15364;DHT22;7781;49.690;6.472;2023-04-24T00:46:56;9.60;99.90
15364;DHT22;7781;49.690;6.472;2023-04-24T00:49:26;9.60;99.90
15364;DHT22;7781;49.690;6.472;2023-04-24T00:51:56;9.50;99.90
15364;DHT22;7781;49.690;6.472;2023-04-24T00:54:26;9.50;99.90
15364;DHT22;7781;49.690;6.472;2023-04-24T00:56:54;9.50;99.90
15364;DHT22;7781;49.690;6.472;2023-04-24T00:59:24;9.50;99.90
15364;DHT22;7781;49.690;6.472;2023-04-24T01:01:53;9.50;99.90
15364;DHT22;7781;49.690;6.472;2023-04-24T01:04:23;9.40;99.90
15364;DHT22;7781;49.690;6.472;2023-04-24T01:06:54;9.40;99.90
15364;DHT22;7781;49.690;6.472;2023-04-24T01:09:25;9.40;99.90
15364;DHT22;7781;49.690;6.472;2023-04-24T01:11:54;9.40;99.90
15364;DHT22;7781;49.690;6.472;2023-04-24T01:14:24;9.40;99.90
15364;DHT22;7781;49.690;6.472;2023-04-24T01:16:53;9.30;99.90
15364;DHT22;7781;49.690;6.472;2023-04-24T01:19:28;9.30;99.90
15364;DHT22;7781;49.690;6.472;2023-04-24T01:21:58;9.30;99.90
15364;DHT22;7781;49.690;6.472;2023-04-24T01:24:30;9.20;99.90
15364;DHT22;7781;49.690;6.472;2023-04-24T01:26:59;9.20;99.90
15364;DHT22;7781;49.690;6.472;2023-04-24T01:29:28;9.10;99.90
15364;DHT22;7781;49.690;6.472;2023-04-24T01:31:57;9.10;99.90
15364;DHT22;7781;49.690;6.472;2023-04-24T01:34:27;9.00;99.90
15364;DHT22;7781;49.690;6.472;2023-04-24T01:36:55;9.00;99.90
15364;DHT22;7781;49.690;6.472;2023-04-24T01:39:30;8.90;99.90
15364;DHT22;7781;49.690;6.472;2023-04-24T01:42:00;8.80;99.90
15364;DHT22;7781;49.690;6.472;2023-04-24T01:44:30;8.80;99.90
15364;DHT22;7781;49.690;6.472;2023-04-24T01:47:00;8.70;99.90
15364;DHT22;7781;49.690;6.472;2023-04-24T01:49:34;8.60;99.90
15364;DHT22;7781;49.690;6.472;2023-04-24T01:52:05;8.60;99.90
15364;DHT22;7781;49.690;6.472;2023-04-24T01:54:35;8.50;99.90
15364;DHT22;7781;49.690;6.472;2023-04-24T01:57:05;8.50;99.90
15364;DHT22;7781;49.690;6.472;2023-04-24T01:59:34;8.40;99.90
15364;DHT22;7781;49.690;6.472;2023-04-24T02:02:04;8.40;99.90
15364;DHT22;7781;49.690;6.472;2023-04-24T02:04:34;8.30;99.90
15364;DHT22;7781;49.690;6.472;2023-04-24T02:07:03;8.30;99.90
15364;DHT22;7781;49.690;6.472;2023-04-24T02:09:32;8.30;99.90
15364;DHT22;7781;49.690;6.472;2023-04-24T02:12:02;8.30;99.90
15364;DHT22;7781;49.690;6.472;2023-04-24T02:14:31;8.20;99.90
15364;DHT22;7781;49.690;6.472;2023-04-24T02:17:03;8.20;99.90
15364;DHT22;7781;49.690;6.472;2023-04-24T02:19:31;8.10;99.90
15364;DHT22;7781;49.690;6.472;2023-04-24T02:22:00;8.10;99.90
15364;DHT22;7781;49.690;6.472;2023-04-24T02:24:28;8.00;99.90
15364;DHT22;7781;49.690;6.472;2023-04-24T02:26:57;8.00;99.90
15364;DHT22;7781;49.690;6.472;2023-04-24T02:29:27;8.00;99.90
15364;DHT22;7781;49.690;6.472;2023-04-24T02:31:56;7.90;99.90
15364;DHT22;7781;49.690;6.472;2023-04-24T02:34:25;7.80;99.90
15364;DHT22;7781;49.690;6.472;2023-04-24T02:36:56;7.80;99.90
15364;DHT22;7781;49.690;6.472;2023-04-24T02:39:26;7.80;99.90
15364;DHT22;7781;49.690;6.472;2023-04-24T02:41:55;7.70;99.90
15364;DHT22;7781;49.690;6.472;2023-04-24T02:44:23;7.70;99.90
15364;DHT22;7781;49.690;6.472;2023-04-24T02:46:53;7.70;99.90
15364;DHT22;7781;49.690;6.472;2023-04-24T02:49:24;7.70;99.90
15364;DHT22;7781;49.690;6.472;2023-04-24T02:51:54;7.70;99.90
15364;DHT22;7781;49.690;6.472;2023-04-24T02:54:25;7.80;99.90
15364;DHT22;7781;49.690;6.472;2023-04-24T02:56:53;7.80;99.90
15364;DHT22;7781;49.690;6.472;2023-04-24T02:59:24;7.80;99.90
15364;DHT22;7781;49.690;6.472;2023-04-24T03:01:56;7.90;99.90
15364;DHT22;7781;49.690;6.472;2023-04-24T03:04:25;7.90;99.90
15364;DHT22;7781;49.690;6.472;2023-04-24T03:06:54;7.90;99.90
15364;DHT22;7781;49.690;6.472;2023-04-24T03:09:23;7.90;99.90
15364;DHT22;7781;49.690;6.472;2023-04-24T03:11:54;7.80;99.90
15364;DHT22;7781;49.690;6.472;2023-04-24T03:14:24;7.80;99.90
15364;DHT22;7781;49.690;6.472;2023-04-24T03:16:55;7.80;99.90
15364;DHT22;7781;49.690;6.472;2023-04-24T03:19:23;7.90;99.90
15364;DHT22;7781;49.690;6.472;2023-04-24T03:22:01;7.90;99.90
15364;DHT22;7781;49.690;6.472;2023-04-24T03:24:31;7.90;99.90
15364;DHT22;7781;49.690;6.472;2023-04-24T03:27:00;7.90;99.90
15364;DHT22;7781;49.690;6.472;2023-04-24T03:29:45;7.90;99.90
15364;DHT22;7781;49.690;6.472;2023-04-24T03:32:16;7.80;99.90
15364;DHT22;7781;49.690;6.472;2023-04-24T03:34:46;7.80;99.90
15364;DHT22;7781;49.690;6.472;2023-04-24T03:37:17;7.80;99.90
15364;DHT22;7781;49.690;6.472;2023-04-24T03:39:56;7.70;99.90
15364;DHT22;7781;49.690;6.472;2023-04-24T03:42:25;7.70;99.90
15364;DHT22;7781;49.690;6.472;2023-04-24T03:44:55;7.60;99.90
15364;DHT22;7781;49.690;6.472;2023-04-24T03:47:31;7.60;99.90
15364;DHT22;7781;49.690;6.472;2023-04-24T03:50:01;7.60;99.90
15364;DHT22;7781;49.690;6.472;2023-04-24T03:52:31;7.70;99.90
15364;DHT22;7781;49.690;6.472;2023-04-24T03:55:00;7.70;99.90
15364;DHT22;7781;49.690;6.472;2023-04-24T03:57:32;7.70;99.90
15364;DHT22;7781;49.690;6.472;2023-04-24T04:00:10;7.70;99.90
15364;DHT22;7781;49.690;6.472;2023-04-24T04:02:44;7.70;99.90
15364;DHT22;7781;49.690;6.472;2023-04-24T04:05:15;7.60;99.90
15364;DHT22;7781;49.690;6.472;2023-04-24T04:07:44;7.60;99.90
15364;DHT22;7781;49.690;6.472;2023-04-24T04:10:13;7.70;99.90
15364;DHT22;7781;49.690;6.472;2023-04-24T04:12:42;7.60;99.90
15364;DHT22;7781;49.690;6.472;2023-04-24T04:15:10;7.70;99.90
15364;DHT22;7781;49.690;6.472;2023-04-24T04:17:40;7.70;99.90
15364;DHT22;7781;49.690;6.472;2023-04-24T04:20:12;7.70;99.90
15364;DHT22;7781;49.690;6.472;2023-04-24T04:22:41;7.60;99.90
15364;DHT22;7781;49.690;6.472;2023-04-24T04:25:16;7.70;99.90
15364;DHT22;7781;49.690;6.472;2023-04-24T04:27:46;7.70;99.90
15364;DHT22;7781;49.690;6.472;2023-04-24T04:30:15;7.70;99.90
15364;DHT22;7781;49.690;6.472;2023-04-24T04:32:50;7.80;99.90
15364;DHT22;7781;49.690;6.472;2023-04-24T04:35:23;7.70;99.90
15364;DHT22;7781;49.690;6.472;2023-04-24T04:37:52;7.80;99.90
15364;DHT22;7781;49.690;6.472;2023-04-24T04:40:31;7.80;99.90
15364;DHT22;7781;49.690;6.472;2023-04-24T04:43:04;7.80;99.90
15364;DHT22;7781;49.690;6.472;2023-04-24T04:45:41;7.80;99.90
15364;DHT22;7781;49.690;6.472;2023-04-24T04:48:30;7.80;99.90
15364;DHT22;7781;49.690;6.472;2023-04-24T04:51:04;7.90;99.90
15364;DHT22;7781;49.690;6.472;2023-04-24T04:53:33;7.90;99.90
15364;DHT22;7781;49.690;6.472;2023-04-24T04:56:02;7.90;99.90
15364;DHT22;7781;49.690;6.472;2023-04-24T04:58:42;7.90;99.90
15364;DHT22;7781;49.690;6.472;2023-04-24T05:01:14;7.90;99.90
15364;DHT22;7781;49.690;6.472;2023-04-24T05:03:46;7.90;99.90
15364;DHT22;7781;49.690;6.472;2023-04-24T05:06:19;7.90;99.90
15364;DHT22;7781;49.690;6.472;2023-04-24T05:08:50;7.90;99.90
15364;DHT22;7781;49.690;6.472;2023-04-24T05:11:34;7.90;99.90
15364;DHT22;7781;49.690;6.472;2023-04-24T05:14:03;7.80;99.90
15364;DHT22;7781;49.690;6.472;2023-04-24T05:16:35;7.90;99.90
15364;DHT22;7781;49.690;6.472;2023-04-24T05:19:07;7.90;99.90
15364;DHT22;7781;49.690;6.472;2023-04-24T05:21:41;7.90;99.90
15364;DHT22;7781;49.690;6.472;2023-04-24T05:24:12;7.90;99.90
15364;DHT22;7781;49.690;6.472;2023-04-24T05:26:44;7.90;99.90
15364;DHT22;7781;49.690;6.472;2023-04-24T05:29:15;7.90;99.90
15364;DHT22;7781;49.690;6.472;2023-04-24T05:31:47;8.00;99.90
15364;DHT22;7781;49.690;6.472;2023-04-24T05:34:16;8.00;99.90
15364;DHT22;7781;49.690;6.472;2023-04-24T05:36:49;8.00;99.90
15364;DHT22;7781;49.690;6.472;2023-04-24T05:39:21;8.00;99.90
15364;DHT22;7781;49.690;6.472;2023-04-24T05:41:53;7.90;99.90
15364;DHT22;7781;49.690;6.472;2023-04-24T05:44:22;7.90;99.90
15364;DHT22;7781;49.690;6.472;2023-04-24T05:46:52;7.90;99.90
15364;DHT22;7781;49.690;6.472;2023-04-24T05:49:22;8.00;99.90
15364;DHT22;7781;49.690;6.472;2023-04-24T05:51:53;8.00;99.90
15364;DHT22;7781;49.690;6.472;2023-04-24T05:54:24;8.00;99.90
15364;DHT22;7781;49.690;6.472;2023-04-24T05:56:53;8.00;99.90
15364;DHT22;7781;49.690;6.472;2023-04-24T05:59:38;8.00;99.90
15364;DHT22;7781;49.690;6.472;2023-04-24T06:02:09;8.00;99.90
15364;DHT22;7781;49.690;6.472;2023-04-24T06:04:38;8.00;99.90
15364;DHT22;7781;49.690;6.472;2023-04-24T06:07:10;8.00;99.90
15364;DHT22;7781;49.690;6.472;2023-04-24T06:09:42;8.00;99.90
15364;DHT22;7781;49.690;6.472;2023-04-24T06:12:12;7.90;99.90
15364;DHT22;7781;49.690;6.472;2023-04-24T06:14:53;7.90;99.90
15364;DHT22;7781;49.690;6.472;2023-04-24T06:17:42;7.90;99.90
15364;DHT22;7781;49.690;6.472;2023-04-24T06:20:15;7.80;99.90
15364;DHT22;7781;49.690;6.472;2023-04-24T06:22:46;7.80;99.90
15364;DHT22;7781;49.690;6.472;2023-04-24T06:25:15;7.80;99.90
15364;DHT22;7781;49.690;6.472;2023-04-24T06:27:45;7.80;99.90
15364;DHT22;7781;49.690;6.472;2023-04-24T06:30:15;7.80;99.90
15364;DHT22;7781;49.690;6.472;2023-04-24T06:32:44;7.90;99.90
15364;DHT22;7781;49.690;6.472;2023-04-24T06:35:15;7.90;99.90
15364;DHT22;7781;49.690;6.472;2023-04-24T06:37:43;7.90;99.90
15364;DHT22;7781;49.690;6.472;2023-04-24T06:40:14;7.90;99.90
15364;DHT22;7781;49.690;6.472;2023-04-24T06:42:42;7.90;99.90
15364;DHT22;7781;49.690;6.472;2023-04-24T06:45:11;7.90;99.90
15364;DHT22;7781;49.690;6.472;2023-04-24T06:47:40;7.90;99.90
15364;DHT22;7781;49.690;6.472;2023-04-24T06:50:09;7.90;99.90
15364;DHT22;7781;49.690;6.472;2023-04-24T06:52:38;7.90;99.90
15364;DHT22;7781;49.690;6.472;2023-04-24T06:55:09;7.90;99.90
15364;DHT22;7781;49.690;6.472;2023-04-24T06:57:40;7.90;99.90
15364;DHT22;7781;49.690;6.472;2023-04-24T07:00:09;7.90;99.90
15364;DHT22;7781;49.690;6.472;2023-04-24T07:02:38;7.80;99.90
15364;DHT22;7781;49.690;6.472;2023-04-24T07:05:07;7.80;99.90
15364;DHT22;7781;49.690;6.472;2023-04-24T07:07:36;7.80;99.90
15364;DHT22;7781;49.690;6.472;2023-04-24T07:10:08;7.80;99.90
15364;DHT22;7781;49.690;6.472;2023-04-24T07:12:40;7.80;99.90
15364;DHT22;7781;49.690;6.472;2023-04-24T07:15:09;7.80;99.90
15364;DHT22;7781;49.690;6.472;2023-04-24T07:17:39;7.80;99.90
15364;DHT22;7781;49.690;6.472;2023-04-24T07:20:11;7.80;99.90
15364;DHT22;7781;49.690;6.472;2023-04-24T07:22:41;7.80;99.90
15364;DHT22;7781;49.690;6.472;2023-04-24T07:25:10;7.90;99.90
15364;DHT22;7781;49.690;6.472;2023-04-24T07:27:41;7.90;99.90
15364;DHT22;7781;49.690;6.472;2023-04-24T07:30:10;7.80;99.90
15364;DHT22;7781;49.690;6.472;2023-04-24T07:32:39;7.80;99.90
15364;DHT22;7781;49.690;6.472;2023-04-24T07:35:08;7.80;99.90
15364;DHT22;7781;49.690;6.472;2023-04-24T07:37:37;7.80;99.90
15364;DHT22;7781;49.690;6.472;2023-04-24T07:40:08;7.80;99.90
15364;DHT22;7781;49.690;6.472;2023-04-24T07:42:36;7.80;99.90
15364;DHT22;7781;49.690;6.472;2023-04-24T07:45:08;7.90;99.90
15364;DHT22;7781;49.690;6.472;2023-04-24T07:47:37;7.90;99.90
15364;DHT22;7781;49.690;6.472;2023-04-24T07:50:06;8.00;99.90
15364;DHT22;7781;49.690;6.472;2023-04-24T07:52:36;8.00;99.90
15364;DHT22;7781;49.690;6.472;2023-04-24T07:55:06;8.10;99.90
15364;DHT22;7781;49.690;6.472;2023-04-24T07:57:35;8.10;99.90
15364;DHT22;7781;49.690;6.472;2023-04-24T08:00:08;8.20;99.90
15364;DHT22;7781;49.690;6.472;2023-04-24T08:02:39;8.20;99.90
15364;DHT22;7781;49.690;6.472;2023-04-24T08:05:08;8.30;99.90
15364;DHT22;7781;49.690;6.472;2023-04-24T08:07:38;8.30;99.90
15364;DHT22;7781;49.690;6.472;2023-04-24T08:10:07;8.30;99.90
15364;DHT22;7781;49.690;6.472;2023-04-24T08:12:36;8.30;99.90
15364;DHT22;7781;49.690;6.472;2023-04-24T08:15:09;8.30;99.90
15364;DHT22;7781;49.690;6.472;2023-04-24T08:17:37;8.30;99.90
15364;DHT22;7781;49.690;6.472;2023-04-24T08:20:10;8.40;99.90
15364;DHT22;7781;49.690;6.472;2023-04-24T08:22:41;8.50;99.90
15364;DHT22;7781;49.690;6.472;2023-04-24T08:25:10;8.70;99.90
15364;DHT22;7781;49.690;6.472;2023-04-24T08:27:38;8.70;99.90
15364;DHT22;7781;49.690;6.472;2023-04-24T08:30:09;8.80;99.90
15364;DHT22;7781;49.690;6.472;2023-04-24T08:32:37;8.80;99.90
15364;DHT22;7781;49.690;6.472;2023-04-24T08:35:07;8.90;99.90
15364;DHT22;7781;49.690;6.472;2023-04-24T08:37:37;9.00;99.90
15364;DHT22;7781;49.690;6.472;2023-04-24T08:40:10;9.00;99.90
15364;DHT22;7781;49.690;6.472;2023-04-24T08:42:41;9.00;99.90
15364;DHT22;7781;49.690;6.472;2023-04-24T08:45:13;9.00;99.90
15364;DHT22;7781;49.690;6.472;2023-04-24T08:47:42;8.90;99.90
15364;DHT22;7781;49.690;6.472;2023-04-24T08:50:11;8.90;99.90
15364;DHT22;7781;49.690;6.472;2023-04-24T08:52:40;8.80;99.90
15364;DHT22;7781;49.690;6.472;2023-04-24T08:55:12;8.80;99.90
15364;DHT22;7781;49.690;6.472;2023-04-24T08:57:41;8.80;99.90
15364;DHT22;7781;49.690;6.472;2023-04-24T09:00:16;8.90;99.90
15364;DHT22;7781;49.690;6.472;2023-04-24T09:02:47;9.00;99.90
15364;DHT22;7781;49.690;6.472;2023-04-24T09:05:17;9.10;99.90
15364;DHT22;7781;49.690;6.472;2023-04-24T09:07:51;9.20;99.90
15364;DHT22;7781;49.690;6.472;2023-04-24T09:10:21;9.40;99.90
15364;DHT22;7781;49.690;6.472;2023-04-24T09:12:52;9.50;99.90
15364;DHT22;7781;49.690;6.472;2023-04-24T09:15:23;9.50;99.90
15364;DHT22;7781;49.690;6.472;2023-04-24T09:17:52;9.60;99.90
15364;DHT22;7781;49.690;6.472;2023-04-24T09:20:23;9.50;99.90
15364;DHT22;7781;49.690;6.472;2023-04-24T09:22:54;9.40;99.90
15364;DHT22;7781;49.690;6.472;2023-04-24T09:25:26;9.40;99.90
15364;DHT22;7781;49.690;6.472;2023-04-24T09:28:01;9.40;99.90
15364;DHT22;7781;49.690;6.472;2023-04-24T09:30:33;9.60;99.90
15364;DHT22;7781;49.690;6.472;2023-04-24T09:33:13;9.70;99.90
15364;DHT22;7781;49.690;6.472;2023-04-24T09:35:48;9.70;99.90
15364;DHT22;7781;49.690;6.472;2023-04-24T09:38:21;9.80;99.90
15364;DHT22;7781;49.690;6.472;2023-04-24T09:41:00;9.90;99.90
15364;DHT22;7781;49.690;6.472;2023-04-24T09:43:29;10.00;99.90
15364;DHT22;7781;49.690;6.472;2023-04-24T09:46:06;10.10;99.90
15364;DHT22;7781;49.690;6.472;2023-04-24T09:48:37;10.00;99.90
15364;DHT22;7781;49.690;6.472;2023-04-24T09:51:07;10.10;99.90
15364;DHT22;7781;49.690;6.472;2023-04-24T09:53:37;10.20;99.90
15364;DHT22;7781;49.690;6.472;2023-04-24T09:56:11;10.30;99.90
15364;DHT22;7781;49.690;6.472;2023-04-24T09:58:40;10.40;99.90
15364;DHT22;7781;49.690;6.472;2023-04-24T10:01:10;10.30;99.90
15364;DHT22;7781;49.690;6.472;2023-04-24T10:03:42;10.40;99.90
15364;DHT22;7781;49.690;6.472;2023-04-24T10:06:13;10.60;99.90
15364;DHT22;7781;49.690;6.472;2023-04-24T10:08:42;10.60;99.90
15364;DHT22;7781;49.690;6.472;2023-04-24T10:11:13;10.60;99.90
15364;DHT22;7781;49.690;6.472;2023-04-24T10:13:42;10.60;99.90
15364;DHT22;7781;49.690;6.472;2023-04-24T10:16:14;10.80;1.00
15364;DHT22;7781;49.690;6.472;2023-04-24T10:18:43;10.90;1.00
15364;DHT22;7781;49.690;6.472;2023-04-24T10:21:12;11.10;61.30
15364;DHT22;7781;49.690;6.472;2023-04-24T10:23:42;11.10;57.20
15364;DHT22;7781;49.690;6.472;2023-04-24T10:26:14;11.00;1.00
15364;DHT22;7781;49.690;6.472;2023-04-24T10:28:45;11.00;11.20
15364;DHT22;7781;49.690;6.472;2023-04-24T10:31:20;11.20;1.00
15364;DHT22;7781;49.690;6.472;2023-04-24T10:33:50;11.20;99.90
15364;DHT22;7781;49.690;6.472;2023-04-24T10:36:22;11.20;99.90
15364;DHT22;7781;49.690;6.472;2023-04-24T10:38:55;11.10;99.90
15364;DHT22;7781;49.690;6.472;2023-04-24T10:41:25;11.10;99.90
15364;DHT22;7781;49.690;6.472;2023-04-24T10:44:07;11.20;99.90
15364;DHT22;7781;49.690;6.472;2023-04-24T10:46:39;11.20;99.90
15364;DHT22;7781;49.690;6.472;2023-04-24T10:49:08;11.10;99.90
15364;DHT22;7781;49.690;6.472;2023-04-24T10:51:59;11.10;99.90
15364;DHT22;7781;49.690;6.472;2023-04-24T10:54:33;11.00;99.90
15364;DHT22;7781;49.690;6.472;2023-04-24T10:57:28;11.00;99.90
15364;DHT22;7781;49.690;6.472;2023-04-24T11:00:22;11.00;99.90
15364;DHT22;7781;49.690;6.472;2023-04-24T11:02:57;11.00;99.90
15364;DHT22;7781;49.690;6.472;2023-04-24T11:05:52;11.00;99.90
15364;DHT22;7781;49.690;6.472;2023-04-24T11:11:13;11.00;99.90
15364;DHT22;7781;49.690;6.472;2023-04-24T11:14:01;11.10;99.90
15364;DHT22;7781;49.690;6.472;2023-04-24T11:16:32;11.20;99.90
15364;DHT22;7781;49.690;6.472;2023-04-24T11:19:06;11.20;99.90
15364;DHT22;7781;49.690;6.472;2023-04-24T11:21:42;11.30;99.90
15364;DHT22;7781;49.690;6.472;2023-04-24T11:24:31;11.40;99.90
15364;DHT22;7781;49.690;6.472;2023-04-24T11:27:06;11.30;99.90
15364;DHT22;7781;49.690;6.472;2023-04-24T11:29:43;11.30;99.90
15364;DHT22;7781;49.690;6.472;2023-04-24T11:32:23;11.30;99.90
15364;DHT22;7781;49.690;6.472;2023-04-24T11:34:56;11.40;99.90
15364;DHT22;7781;49.690;6.472;2023-04-24T11:37:29;11.40;99.90
15364;DHT22;7781;49.690;6.472;2023-04-24T11:40:07;11.60;99.90
15364;DHT22;7781;49.690;6.472;2023-04-24T11:42:38;11.70;99.90
15364;DHT22;7781;49.690;6.472;2023-04-24T11:45:11;11.60;99.90
15364;DHT22;7781;49.690;6.472;2023-04-24T11:47:41;11.50;99.90
15364;DHT22;7781;49.690;6.472;2023-04-24T11:50:13;11.50;99.90
15364;DHT22;7781;49.690;6.472;2023-04-24T11:52:45;11.60;99.90
15364;DHT22;7781;49.690;6.472;2023-04-24T11:55:24;11.50;99.90
15364;DHT22;7781;49.690;6.472;2023-04-24T11:57:58;11.50;99.90
15364;DHT22;7781;49.690;6.472;2023-04-24T12:00:32;11.50;99.90
15364;DHT22;7781;49.690;6.472;2023-04-24T12:03:04;11.40;99.90
15364;DHT22;7781;49.690;6.472;2023-04-24T12:05:36;11.30;99.90
15364;DHT22;7781;49.690;6.472;2023-04-24T12:08:06;11.50;99.90
15364;DHT22;7781;49.690;6.472;2023-04-24T12:10:35;11.50;99.90
15364;DHT22;7781;49.690;6.472;2023-04-24T12:13:04;11.60;99.90
15364;DHT22;7781;49.690;6.472;2023-04-24T12:15:32;11.70;99.90
15364;DHT22;7781;49.690;6.472;2023-04-24T12:18:01;11.90;99.90
15364;DHT22;7781;49.690;6.472;2023-04-24T12:20:31;12.10;99.90
15364;DHT22;7781;49.690;6.472;2023-04-24T12:23:01;12.20;99.90
15364;DHT22;7781;49.690;6.472;2023-04-24T12:25:31;12.60;99.90
15364;DHT22;7781;49.690;6.472;2023-04-24T12:28:12;13.00;99.90
15364;DHT22;7781;49.690;6.472;2023-04-24T12:30:42;13.40;99.90
15364;DHT22;7781;49.690;6.472;2023-04-24T12:33:12;13.40;99.90
15364;DHT22;7781;49.690;6.472;2023-04-24T12:35:41;13.70;99.90
15364;DHT22;7781;49.690;6.472;2023-04-24T12:38:13;14.10;99.90
15364;DHT22;7781;49.690;6.472;2023-04-24T12:40:42;13.80;99.90
15364;DHT22;7781;49.690;6.472;2023-04-24T12:43:15;14.00;99.90
15364;DHT22;7781;49.690;6.472;2023-04-24T12:45:44;13.90;99.90
15364;DHT22;7781;49.690;6.472;2023-04-24T12:48:13;13.80;99.90
15364;DHT22;7781;49.690;6.472;2023-04-24T12:50:43;13.80;99.90
15364;DHT22;7781;49.690;6.472;2023-04-24T12:53:15;13.80;99.90
15364;DHT22;7781;49.690;6.472;2023-04-24T12:55:44;13.70;99.90
15364;DHT22;7781;49.690;6.472;2023-04-24T12:58:19;13.40;99.90
15364;DHT22;7781;49.690;6.472;2023-04-24T13:00:48;13.30;99.90
15364;DHT22;7781;49.690;6.472;2023-04-24T13:03:18;13.30;99.90
15364;DHT22;7781;49.690;6.472;2023-04-24T13:05:47;13.30;99.90
15364;DHT22;7781;49.690;6.472;2023-04-24T13:08:17;13.20;99.90
15364;DHT22;7781;49.690;6.472;2023-04-24T13:10:46;13.30;99.90
15364;DHT22;7781;49.690;6.472;2023-04-24T13:13:14;13.30;99.90
15364;DHT22;7781;49.690;6.472;2023-04-24T13:15:43;13.40;99.90
15364;DHT22;7781;49.690;6.472;2023-04-24T13:18:11;13.60;99.90
15364;DHT22;7781;49.690;6.472;2023-04-24T13:20:41;14.20;99.90
15364;DHT22;7781;49.690;6.472;2023-04-24T13:23:09;14.80;99.90
15364;DHT22;7781;49.690;6.472;2023-04-24T13:25:39;15.40;99.90
15364;DHT22;7781;49.690;6.472;2023-04-24T13:28:10;15.90;99.90
15364;DHT22;7781;49.690;6.472;2023-04-24T13:30:39;15.60;99.90
15364;DHT22;7781;49.690;6.472;2023-04-24T13:33:09;15.30;99.90
15364;DHT22;7781;49.690;6.472;2023-04-24T13:35:38;15.80;99.90
15364;DHT22;7781;49.690;6.472;2023-04-24T13:38:07;16.10;99.90
15364;DHT22;7781;49.690;6.472;2023-04-24T13:40:36;16.30;99.90
15364;DHT22;7781;49.690;6.472;2023-04-24T13:43:06;16.30;99.90
15364;DHT22;7781;49.690;6.472;2023-04-24T13:45:34;16.20;99.90
15364;DHT22;7781;49.690;6.472;2023-04-24T13:48:03;16.10;99.90
15364;DHT22;7781;49.690;6.472;2023-04-24T13:50:34;16.00;99.90
15364;DHT22;7781;49.690;6.472;2023-04-24T13:53:04;16.30;99.90
15364;DHT22;7781;49.690;6.472;2023-04-24T13:55:38;15.70;99.90
15364;DHT22;7781;49.690;6.472;2023-04-24T13:58:08;15.30;99.90
15364;DHT22;7781;49.690;6.472;2023-04-24T14:00:37;15.60;99.90
15364;DHT22;7781;49.690;6.472;2023-04-24T14:03:06;15.60;99.90
15364;DHT22;7781;49.690;6.472;2023-04-24T14:05:36;15.30;99.90
15364;DHT22;7781;49.690;6.472;2023-04-24T14:08:05;15.60;99.90
15364;DHT22;7781;49.690;6.472;2023-04-24T14:10:35;15.30;99.90
15364;DHT22;7781;49.690;6.472;2023-04-24T14:13:04;15.20;99.90
15364;DHT22;7781;49.690;6.472;2023-04-24T14:15:35;15.70;99.90
15364;DHT22;7781;49.690;6.472;2023-04-24T14:18:04;15.60;99.90
15364;DHT22;7781;49.690;6.472;2023-04-24T14:20:32;16.10;99.90
15364;DHT22;7781;49.690;6.472;2023-04-24T14:23:01;15.80;99.90
15364;DHT22;7781;49.690;6.472;2023-04-24T14:25:30;15.50;99.90
15364;DHT22;7781;49.690;6.472;2023-04-24T14:27:59;15.10;99.90
15364;DHT22;7781;49.690;6.472;2023-04-24T14:30:29;14.50;99.90
15364;DHT22;7781;49.690;6.472;2023-04-24T14:33:02;14.20;99.90
15364;DHT22;7781;49.690;6.472;2023-04-24T14:35:31;14.00;99.90
15364;DHT22;7781;49.690;6.472;2023-04-24T14:38:01;13.90;99.90
15364;DHT22;7781;49.690;6.472;2023-04-24T14:40:30;13.80;99.90
15364;DHT22;7781;49.690;6.472;2023-04-24T14:43:02;13.80;99.90
15364;DHT22;7781;49.690;6.472;2023-04-24T14:45:31;14.00;99.90
15364;DHT22;7781;49.690;6.472;2023-04-24T14:48:00;14.20;99.90
15364;DHT22;7781;49.690;6.472;2023-04-24T14:50:30;14.10;99.90
15364;DHT22;7781;49.690;6.472;2023-04-24T14:52:59;13.80;99.90
15364;DHT22;7781;49.690;6.472;2023-04-24T14:55:29;13.70;99.90
15364;DHT22;7781;49.690;6.472;2023-04-24T14:58:01;13.80;99.90
15364;DHT22;7781;49.690;6.472;2023-04-24T15:00:30;13.40;99.90
15364;DHT22;7781;49.690;6.472;2023-04-24T15:03:03;13.40;99.90
15364;DHT22;7781;49.690;6.472;2023-04-24T15:05:33;13.30;99.90
15364;DHT22;7781;49.690;6.472;2023-04-24T15:08:03;13.30;99.90
15364;DHT22;7781;49.690;6.472;2023-04-24T15:10:33;13.00;99.90
15364;DHT22;7781;49.690;6.472;2023-04-24T15:13:02;12.80;99.90
15364;DHT22;7781;49.690;6.472;2023-04-24T15:15:30;12.50;99.90
15364;DHT22;7781;49.690;6.472;2023-04-24T15:17:59;12.30;99.90
15364;DHT22;7781;49.690;6.472;2023-04-24T15:20:28;12.10;99.90
15364;DHT22;7781;49.690;6.472;2023-04-24T15:22:59;11.70;99.90
15364;DHT22;7781;49.690;6.472;2023-04-24T15:25:29;11.50;99.90
15364;DHT22;7781;49.690;6.472;2023-04-24T15:27:58;11.40;99.90
15364;DHT22;7781;49.690;6.472;2023-04-24T15:30:29;11.30;99.90
15364;DHT22;7781;49.690;6.472;2023-04-24T15:32:59;11.30;99.90
15364;DHT22;7781;49.690;6.472;2023-04-24T15:35:28;11.20;99.90
15364;DHT22;7781;49.690;6.472;2023-04-24T15:37:58;10.90;99.90
15364;DHT22;7781;49.690;6.472;2023-04-24T15:40:29;10.40;99.90
15364;DHT22;7781;49.690;6.472;2023-04-24T15:43:00;10.30;99.90
15364;DHT22;7781;49.690;6.472;2023-04-24T15:45:28;10.20;99.90
15364;DHT22;7781;49.690;6.472;2023-04-24T15:47:57;10.10;99.90
15364;DHT22;7781;49.690;6.472;2023-04-24T15:50:26;10.10;99.90
15364;DHT22;7781;49.690;6.472;2023-04-24T15:52:55;10.00;99.90
15364;DHT22;7781;49.690;6.472;2023-04-24T15:55:25;10.10;99.90
15364;DHT22;7781;49.690;6.472;2023-04-24T15:57:54;10.20;99.90
15364;DHT22;7781;49.690;6.472;2023-04-24T16:00:23;10.30;99.90
15364;DHT22;7781;49.690;6.472;2023-04-24T16:02:52;10.20;99.90
15364;DHT22;7781;49.690;6.472;2023-04-24T16:05:22;10.20;99.90
15364;DHT22;7781;49.690;6.472;2023-04-24T16:07:50;10.20;99.90
15364;DHT22;7781;49.690;6.472;2023-04-24T16:10:19;10.20;99.90
15364;DHT22;7781;49.690;6.472;2023-04-24T16:12:49;10.30;99.90
15364;DHT22;7781;49.690;6.472;2023-04-24T16:15:20;10.40;99.90
15364;DHT22;7781;49.690;6.472;2023-04-24T16:17:49;10.30;99.90
15364;DHT22;7781;49.690;6.472;2023-04-24T16:20:19;10.40;99.90
15364;DHT22;7781;49.690;6.472;2023-04-24T16:22:48;10.40;99.90